createdAt,value
2022-10-05T00:01:26.761Z,73.89
2022-10-05T00:04:05.262Z,73.60
2022-10-05T00:06:35.904Z,73.83
2022-10-05T00:09:16.210Z,73.75
2022-10-05T00:11:47.955Z,73.55
2022-10-05T00:14:20.771Z,73.93
2022-10-05T00:16:53.846Z,73.68
2022-10-05T00:19:29.075Z,73.74
2022-10-05T00:22:01.721Z,73.43
2022-10-05T00:24:33.013Z,73.86
2022-10-05T00:27:04.446Z,73.48
2022-10-05T00:29:39.253Z,73.63
2022-10-05T00:32:13.040Z,73.51
2022-10-05T00:34:44.673Z,73.43
2022-10-05T00:37:16.833Z,73.48
2022-10-05T00:39:47.956Z,73.27
2022-10-05T00:42:37.544Z,73.42
2022-10-05T00:45:14.590Z,73.26
2022-10-05T00:47:58.069Z,73.53
2022-10-05T00:50:44.876Z,73.46
2022-10-05T00:53:28.538Z,73.63
2022-10-05T00:56:06.605Z,73.52
2022-10-05T00:58:49.831Z,73.42
2022-10-05T01:01:23.031Z,73.72
2022-10-05T01:04:08.101Z,73.56
2022-10-05T01:06:50.755Z,73.91
2022-10-05T01:09:32.227Z,74.05
2022-10-05T01:12:10.638Z,74.46
2022-10-05T01:14:53.476Z,74.29
2022-10-05T01:17:30.798Z,74.54
2022-10-05T01:20:33.999Z,74.42
2022-10-05T01:23:34.134Z,74.68
2022-10-05T01:26:20.522Z,74.65
2022-10-05T01:29:00.457Z,74.63
2022-10-05T01:31:41.820Z,74.26
2022-10-05T01:34:20.130Z,74.34
2022-10-05T01:36:59.855Z,74.28
2022-10-05T01:39:37.714Z,74.15
2022-10-05T01:42:15.620Z,73.81
2022-10-05T01:44:57.898Z,73.95
2022-10-05T01:47:35.289Z,74.00
2022-10-05T01:50:11.533Z,74.30
2022-10-05T01:52:54.816Z,74.22
2022-10-05T01:55:34.551Z,74.18
2022-10-05T01:58:14.177Z,73.90
2022-10-05T02:00:55.128Z,73.99
2022-10-05T02:03:31.678Z,73.83
2022-10-05T02:06:05.185Z,74.13
2022-10-05T02:08:41.917Z,73.94
2022-10-05T02:11:16.041Z,74.20
2022-10-05T02:13:50.589Z,73.86
2022-10-05T02:16:32.856Z,74.32
2022-10-05T02:19:11.324Z,73.88
2022-10-05T02:21:44.005Z,74.10
2022-10-05T02:24:25.197Z,73.94
2022-10-05T02:26:58.470Z,73.97
2022-10-05T02:29:33.352Z,73.90
2022-10-05T02:32:13.184Z,73.85
2022-10-05T02:34:45.330Z,74.02
2022-10-05T02:37:38.717Z,74.08
2022-10-05T02:40:22.912Z,73.96
2022-10-05T02:43:07.548Z,74.22
2022-10-05T02:45:47.575Z,74.31
2022-10-05T02:48:30.437Z,74.59
2022-10-05T02:51:07.911Z,74.44
2022-10-05T02:53:45.933Z,74.56
2022-10-05T02:56:26.997Z,74.64
2022-10-05T02:59:07.680Z,74.80
2022-10-05T03:01:44.388Z,74.60
2022-10-05T03:04:29.121Z,74.68
2022-10-05T03:07:08.042Z,74.56
2022-10-05T03:09:44.485Z,74.61
2022-10-05T03:12:29.629Z,74.79
2022-10-05T03:15:11.313Z,74.51
2022-10-05T03:17:52.289Z,74.44
2022-10-05T03:20:40.738Z,74.70
2022-10-05T03:23:17.255Z,74.86
2022-10-05T03:26:09.050Z,74.87
2022-10-05T03:28:47.475Z,74.57
2022-10-05T03:31:28.660Z,74.92
2022-10-05T03:34:03.510Z,74.90
2022-10-05T03:36:45.550Z,74.96
2022-10-05T03:39:25.165Z,74.79
2022-10-05T03:42:03.460Z,75.07
2022-10-05T03:44:44.087Z,74.96
2022-10-05T03:47:29.023Z,75.17
2022-10-05T03:50:26.072Z,75.00
2022-10-05T03:53:04.612Z,74.80
2022-10-05T03:55:42.232Z,74.92
2022-10-05T03:58:19.000Z,74.85
2022-10-05T04:00:54.900Z,74.84
2022-10-05T04:03:33.394Z,74.56
2022-10-05T04:06:14.484Z,74.88
2022-10-05T04:08:53.717Z,74.63
2022-10-05T04:11:30.760Z,74.79
2022-10-05T04:14:06.348Z,74.57
2022-10-05T04:16:42.354Z,74.93
2022-10-05T04:19:22.047Z,74.89
2022-10-05T04:21:58.177Z,74.71
2022-10-05T04:24:38.704Z,74.97
2022-10-05T04:27:15.146Z,74.90
2022-10-05T04:29:49.144Z,75.00
2022-10-05T04:32:33.862Z,74.67
2022-10-05T04:35:36.490Z,74.97
2022-10-05T04:38:26.957Z,74.79
2022-10-05T04:41:17.561Z,74.80
2022-10-05T04:43:57.768Z,74.94
2022-10-05T04:46:39.681Z,74.80
2022-10-05T04:49:34.995Z,74.97
2022-10-05T04:52:16.231Z,75.14
2022-10-05T04:55:01.710Z,75.09
2022-10-05T04:57:44.643Z,75.19
2022-10-05T05:00:25.134Z,75.45
2022-10-05T05:03:32.377Z,75.41
2022-10-05T05:06:18.405Z,75.72
2022-10-05T05:09:15.183Z,75.43
2022-10-05T05:12:02.052Z,75.78
2022-10-05T05:14:51.025Z,75.50
2022-10-05T05:17:33.577Z,75.56
2022-10-05T05:20:18.526Z,75.17
2022-10-05T05:22:55.858Z,75.03
2022-10-05T05:25:39.729Z,75.25
2022-10-05T05:28:21.493Z,75.04
2022-10-05T05:31:05.235Z,75.08
2022-10-05T05:33:46.919Z,75.16
2022-10-05T05:36:40.083Z,74.63
2022-10-05T05:39:26.718Z,74.38
2022-10-05T05:42:21.797Z,74.20
2022-10-05T05:44:55.297Z,74.11
2022-10-05T05:47:38.107Z,73.24
2022-10-05T05:50:32.442Z,72.85
2022-10-05T05:53:13.931Z,72.83
2022-10-05T05:55:48.063Z,73.00
2022-10-05T05:58:26.457Z,72.36
2022-10-05T06:01:02.440Z,72.19
2022-10-05T06:03:41.500Z,71.19
2022-10-05T06:06:17.211Z,70.27
2022-10-05T06:08:54.220Z,69.79
2022-10-05T06:11:41.175Z,68.60
2022-10-05T06:14:19.265Z,68.52
2022-10-05T06:16:56.689Z,67.03
2022-10-05T06:19:31.973Z,66.07
2022-10-05T06:22:08.645Z,64.56
2022-10-05T06:24:49.177Z,63.04
2022-10-05T06:27:30.025Z,60.48
2022-10-05T06:30:08.523Z,60.76
2022-10-05T06:32:59.830Z,59.61
2022-10-05T06:35:46.799Z,58.14
2022-10-05T06:38:32.813Z,56.98
2022-10-05T06:41:14.412Z,56.21
2022-10-05T06:43:59.510Z,55.17
2022-10-05T06:47:02.417Z,54.26
2022-10-05T06:49:48.897Z,53.92
2022-10-05T06:52:54.924Z,53.38
2022-10-05T06:55:34.271Z,53.43
2022-10-05T06:58:17.586Z,52.00
2022-10-05T07:00:55.708Z,51.65
2022-10-05T07:03:38.860Z,51.17
2022-10-05T07:06:18.025Z,49.90
2022-10-05T07:09:15.515Z,49.13
2022-10-05T07:12:05.066Z,48.78
2022-10-05T07:14:56.602Z,47.17
2022-10-05T07:17:44.481Z,47.34
2022-10-05T07:20:22.254Z,46.47
2022-10-05T07:23:19.964Z,45.13
2022-10-05T07:26:01.551Z,44.42
2022-10-05T07:28:42.284Z,44.33
2022-10-05T07:31:22.951Z,43.70
2022-10-05T07:34:00.972Z,43.58
2022-10-05T07:36:54.810Z,42.13
2022-10-05T07:39:58.309Z,41.23
2022-10-05T07:42:48.902Z,39.68
2022-10-05T07:45:31.213Z,39.04
2022-10-05T07:48:14.151Z,38.49
2022-10-05T07:50:56.121Z,38.53
2022-10-05T07:53:31.483Z,38.96
2022-10-05T07:56:07.450Z,39.30
2022-10-05T07:58:46.403Z,37.79
2022-10-05T08:01:22.906Z,38.32
2022-10-05T08:04:00.277Z,38.87
2022-10-05T08:06:50.824Z,37.19
2022-10-05T08:09:40.045Z,38.34
2022-10-05T08:12:31.258Z,37.86
2022-10-05T08:15:09.113Z,38.10
2022-10-05T08:17:48.685Z,39.01
2022-10-05T08:20:27.448Z,38.85
2022-10-05T08:23:03.930Z,39.40
2022-10-05T08:25:47.311Z,39.81
2022-10-05T08:28:24.500Z,39.56
2022-10-05T08:31:04.091Z,39.52
2022-10-05T08:33:46.935Z,39.86
2022-10-05T08:36:22.501Z,40.18
2022-10-05T08:38:59.376Z,40.46
2022-10-05T08:42:00.237Z,39.55
2022-10-05T08:44:59.631Z,38.87
2022-10-05T08:47:54.869Z,40.09
2022-10-05T08:50:37.079Z,40.78
2022-10-05T08:53:32.036Z,41.05
2022-10-05T08:56:30.259Z,40.19
2022-10-05T08:59:25.510Z,40.07
2022-10-05T09:02:19.508Z,40.65
2022-10-05T09:05:14.509Z,41.30
2022-10-05T09:08:10.284Z,41.06
2022-10-05T09:11:09.978Z,40.57
2022-10-05T09:14:01.886Z,41.22
2022-10-05T09:17:07.745Z,41.19
2022-10-05T09:19:58.204Z,41.86
2022-10-05T09:22:41.996Z,40.36
2022-10-05T09:25:24.184Z,41.42
2022-10-05T09:28:00.715Z,42.28
2022-10-05T09:30:45.039Z,42.88
2022-10-05T09:33:41.531Z,43.29
2022-10-05T09:36:53.824Z,41.91
2022-10-05T09:39:49.463Z,42.49
2022-10-05T09:42:43.354Z,42.52
2022-10-05T09:46:01.536Z,42.99
2022-10-05T09:49:10.207Z,42.58
2022-10-05T09:52:06.092Z,43.19
2022-10-05T09:55:17.073Z,43.39
2022-10-05T09:58:08.609Z,43.15
2022-10-05T10:01:03.626Z,42.93
2022-10-05T10:04:13.948Z,42.36
2022-10-05T10:07:06.598Z,42.84
2022-10-05T10:09:47.165Z,43.51
2022-10-05T10:12:31.890Z,42.92
2022-10-05T10:15:38.603Z,42.96
2022-10-05T10:18:34.764Z,42.31
2022-10-05T10:21:46.113Z,41.51
2022-10-05T10:24:33.286Z,42.50
2022-10-05T10:27:16.583Z,42.37
2022-10-05T10:30:22.468Z,42.00
2022-10-05T10:33:25.786Z,41.55
2022-10-05T10:36:07.059Z,42.21
2022-10-05T10:38:45.346Z,41.73
2022-10-05T10:41:53.993Z,40.72
2022-10-05T10:44:59.098Z,40.61
2022-10-05T10:47:48.217Z,39.56
2022-10-05T10:50:54.491Z,39.41
2022-10-05T10:53:31.980Z,38.08
2022-10-05T10:56:23.487Z,39.59
2022-10-05T10:59:20.143Z,37.98
2022-10-05T11:02:09.768Z,39.21
2022-10-05T11:05:12.993Z,38.16
2022-10-05T11:08:01.394Z,37.92
2022-10-05T11:11:01.573Z,37.75
2022-10-05T11:13:52.331Z,36.86
2022-10-05T11:16:47.356Z,37.12
2022-10-05T11:20:03.975Z,36.98
2022-10-05T11:22:53.176Z,37.26
2022-10-05T11:25:45.465Z,36.17
2022-10-05T11:28:38.114Z,35.85
2022-10-05T11:31:41.415Z,34.24
2022-10-05T11:34:47.212Z,33.84
2022-10-05T11:37:39.389Z,34.21
2022-10-05T11:40:46.214Z,33.79
2022-10-05T11:43:53.911Z,33.05
2022-10-05T11:46:32.957Z,34.84
2022-10-05T11:49:25.036Z,33.84
2022-10-05T11:52:02.765Z,34.74
2022-10-05T11:55:10.540Z,34.29
2022-10-05T11:57:51.677Z,33.97
2022-10-05T12:00:23.949Z,34.41
2022-10-05T12:03:16.318Z,33.35
2022-10-05T12:05:59.924Z,34.07
2022-10-05T12:08:39.765Z,33.60
2022-10-05T12:11:28.854Z,33.76
2022-10-05T12:14:08.502Z,33.68
2022-10-05T12:16:47.655Z,34.71
2022-10-05T12:19:23.626Z,34.70
2022-10-05T12:22:00.267Z,34.10
2022-10-05T12:24:48.879Z,34.37
2022-10-05T12:27:23.787Z,34.86
2022-10-05T12:30:03.418Z,34.74
2022-10-05T12:32:39.297Z,35.27
2022-10-05T12:35:36.629Z,35.26
2022-10-05T12:38:20.245Z,34.61
2022-10-05T12:40:56.420Z,34.71
2022-10-05T12:43:36.540Z,34.66
2022-10-05T12:46:17.963Z,35.52
2022-10-05T12:49:04.919Z,35.15
2022-10-05T12:51:43.766Z,35.40
2022-10-05T12:54:21.534Z,35.89
2022-10-05T12:56:57.515Z,35.81
2022-10-05T12:59:40.605Z,35.23
2022-10-05T13:02:26.709Z,35.12
2022-10-05T13:05:03.045Z,34.42
2022-10-05T13:07:49.380Z,34.68
2022-10-05T13:10:34.052Z,35.01
2022-10-05T13:13:20.653Z,35.54
2022-10-05T13:15:56.279Z,35.44
2022-10-05T13:18:38.763Z,35.07
2022-10-05T13:21:14.827Z,35.83
2022-10-05T13:23:59.784Z,36.07
2022-10-05T13:26:37.084Z,36.19
2022-10-05T13:29:19.851Z,36.54
2022-10-05T13:31:54.573Z,36.74
2022-10-05T13:34:36.868Z,35.81
2022-10-05T13:37:15.416Z,36.31
2022-10-05T13:39:58.472Z,35.93
2022-10-05T13:42:38.421Z,35.74
2022-10-05T13:45:17.136Z,36.46
2022-10-05T13:48:01.036Z,36.08
2022-10-05T13:50:38.051Z,36.49
2022-10-05T13:53:21.641Z,36.17
2022-10-05T13:55:58.929Z,36.21
2022-10-05T13:58:38.219Z,35.83
2022-10-05T14:01:16.869Z,36.33
2022-10-05T14:04:08.708Z,36.37
2022-10-05T14:06:42.346Z,36.77
2022-10-05T14:09:17.527Z,37.58
2022-10-05T14:11:51.725Z,37.22
2022-10-05T14:14:28.463Z,37.14
2022-10-05T14:17:00.945Z,37.64
2022-10-05T14:19:37.053Z,37.25
2022-10-05T14:22:17.638Z,37.86
2022-10-05T14:24:55.243Z,37.91
2022-10-05T14:27:28.675Z,38.38
2022-10-05T14:30:03.104Z,38.32
2022-10-05T14:32:35.915Z,38.37
2022-10-05T14:35:18.626Z,38.72
2022-10-05T14:37:59.881Z,38.31
2022-10-05T14:40:34.370Z,38.05
2022-10-05T14:43:22.512Z,38.36
2022-10-05T14:45:58.073Z,38.85
2022-10-05T14:48:30.362Z,38.74
2022-10-05T14:51:03.577Z,38.95
2022-10-05T14:53:44.508Z,39.15
2022-10-05T14:56:28.275Z,39.37
2022-10-05T14:59:17.498Z,39.75
2022-10-05T15:01:57.976Z,39.83
2022-10-05T15:04:44.716Z,40.00
2022-10-05T15:07:26.047Z,40.33
2022-10-05T15:10:10.002Z,40.06
2022-10-05T15:12:46.936Z,40.55
2022-10-05T15:15:28.827Z,40.53
2022-10-05T15:18:04.085Z,40.59
2022-10-05T15:20:43.393Z,41.01
2022-10-05T15:23:26.791Z,41.12
2022-10-05T15:26:10.873Z,41.10
2022-10-05T15:28:48.849Z,41.63
2022-10-05T15:31:28.457Z,41.65
2022-10-05T15:34:04.540Z,41.77
2022-10-05T15:36:43.243Z,41.88
2022-10-05T15:39:28.681Z,41.98
2022-10-05T15:42:13.189Z,42.57
2022-10-05T15:45:05.688Z,42.51
2022-10-05T15:47:50.261Z,43.08
2022-10-05T15:50:26.046Z,42.83
2022-10-05T15:53:02.740Z,43.41
2022-10-05T15:55:41.654Z,43.18
2022-10-05T15:58:33.376Z,43.42
2022-10-05T16:01:10.454Z,43.59
2022-10-05T16:03:51.403Z,43.96
2022-10-05T16:06:48.960Z,44.38
2022-10-05T16:09:36.538Z,44.55
2022-10-05T16:12:21.007Z,45.46
2022-10-05T16:15:03.073Z,45.40
2022-10-05T16:17:58.569Z,45.98
2022-10-05T16:20:41.343Z,45.90
2022-10-05T16:23:26.994Z,46.01
2022-10-05T16:29:17.789Z,46.57
2022-10-05T16:32:00.385Z,46.93
2022-10-05T16:34:44.682Z,47.44
2022-10-05T16:37:28.455Z,47.57
2022-10-05T16:40:03.240Z,47.82
2022-10-05T16:42:50.365Z,48.32
2022-10-05T16:45:30.650Z,48.17
2022-10-05T16:48:15.339Z,48.59
2022-10-05T16:50:58.722Z,48.77
2022-10-05T16:53:35.690Z,48.76
2022-10-05T16:56:28.471Z,48.94
2022-10-05T16:59:14.258Z,49.23
2022-10-05T17:01:51.230Z,50.19
2022-10-05T17:04:37.307Z,49.93
2022-10-05T17:07:39.578Z,50.16
2022-10-05T17:10:37.886Z,50.58
2022-10-05T17:13:24.490Z,50.80
2022-10-05T17:16:06.908Z,50.72
2022-10-05T17:19:19.461Z,51.40
2022-10-05T17:22:02.205Z,51.37
2022-10-05T17:24:57.615Z,51.91
2022-10-05T17:27:35.467Z,51.81
2022-10-05T17:30:42.051Z,52.11
2022-10-05T17:33:21.391Z,52.87
2022-10-05T17:35:58.624Z,52.61
2022-10-05T17:38:53.762Z,53.10
2022-10-05T17:41:28.417Z,52.64
2022-10-05T17:44:24.530Z,53.25
2022-10-05T17:46:56.997Z,53.04
2022-10-05T17:50:10.095Z,53.84
2022-10-05T17:52:52.867Z,53.72
2022-10-05T17:55:46.885Z,54.35
2022-10-05T17:59:04.967Z,54.13
2022-10-05T18:01:38.409Z,54.22
2022-10-05T18:04:42.447Z,54.60
2022-10-05T18:07:24.923Z,54.85
2022-10-05T18:10:19.218Z,55.05
2022-10-05T18:12:54.121Z,55.68
2022-10-05T18:15:50.535Z,55.67
2022-10-05T18:19:01.241Z,55.85
2022-10-05T18:21:40.989Z,55.61
2022-10-05T18:24:55.087Z,56.23
2022-10-05T18:27:44.147Z,56.18
2022-10-05T18:30:24.569Z,56.14
2022-10-05T18:33:14.335Z,56.49
2022-10-05T18:35:59.653Z,56.69
2022-10-05T18:38:41.578Z,56.47
2022-10-05T18:41:24.266Z,56.39
2022-10-05T18:44:09.129Z,56.68
2022-10-05T18:46:53.581Z,57.14
2022-10-05T18:49:43.791Z,57.39
2022-10-05T18:52:25.110Z,57.05
2022-10-05T18:55:06.240Z,57.01
2022-10-05T18:57:53.090Z,57.50
2022-10-05T19:00:25.489Z,57.58
2022-10-05T19:03:02.716Z,57.74
2022-10-05T19:05:48.407Z,58.25
2022-10-05T19:08:26.686Z,58.13
2022-10-05T19:11:01.023Z,58.30
2022-10-05T19:13:42.203Z,58.42
2022-10-05T19:16:27.848Z,58.92
2022-10-05T19:19:12.876Z,58.91
2022-10-05T19:21:51.465Z,58.86
2022-10-05T19:24:42.786Z,59.20
2022-10-05T19:27:20.542Z,59.20
2022-10-05T19:30:14.886Z,59.46
2022-10-05T19:33:16.582Z,59.83
2022-10-05T19:35:58.731Z,59.69
2022-10-05T19:38:35.406Z,60.14
2022-10-05T19:41:17.038Z,60.05
2022-10-05T19:44:19.796Z,60.59
2022-10-05T19:47:01.648Z,60.28
2022-10-05T19:49:46.046Z,60.58
2022-10-05T19:52:24.697Z,60.34
2022-10-05T19:55:06.043Z,60.76
2022-10-05T19:57:37.902Z,60.66
2022-10-05T20:00:09.554Z,60.46
2022-10-05T20:02:42.206Z,60.79
2022-10-05T20:05:16.693Z,60.81
2022-10-05T20:07:49.941Z,60.70
2022-10-05T20:10:29.567Z,61.20
2022-10-05T20:13:01.945Z,60.83
2022-10-05T20:15:46.614Z,61.16
2022-10-05T20:18:51.555Z,61.25
2022-10-05T20:21:41.356Z,61.45
2022-10-05T20:24:16.705Z,61.07
2022-10-05T20:27:05.467Z,61.28
2022-10-05T20:29:38.546Z,61.45
2022-10-05T20:32:12.402Z,61.73
2022-10-05T20:34:44.670Z,61.25
2022-10-05T20:37:17.081Z,61.54
2022-10-05T20:39:51.645Z,61.68
2022-10-05T20:42:23.293Z,61.79
2022-10-05T20:44:56.840Z,62.09
2022-10-05T20:47:27.760Z,61.95
2022-10-05T20:49:58.484Z,61.98
2022-10-05T20:52:29.606Z,62.19
2022-10-05T20:55:02.674Z,62.55
2022-10-05T20:57:33.606Z,62.30
2022-10-05T21:00:04.083Z,62.69
2022-10-05T21:02:34.883Z,62.23
2022-10-05T21:05:05.769Z,62.71
2022-10-05T21:07:37.135Z,62.94
2022-10-05T21:10:11.526Z,62.49
2022-10-05T21:12:42.328Z,62.77
2022-10-05T21:15:13.045Z,62.81
2022-10-05T21:17:43.521Z,63.36
2022-10-05T21:20:14.269Z,63.23
2022-10-05T21:22:44.719Z,63.53
2022-10-05T21:25:18.186Z,63.44
2022-10-05T21:27:50.356Z,63.62
2022-10-05T21:30:21.193Z,63.28
2022-10-05T21:32:51.784Z,63.44
2022-10-05T21:35:22.728Z,63.53
2022-10-05T21:37:53.594Z,63.79
2022-10-05T21:40:26.934Z,64.19
2022-10-05T21:42:57.436Z,64.49
2022-10-05T21:45:28.370Z,64.31
2022-10-05T21:48:00.194Z,64.58
2022-10-05T21:50:30.850Z,64.41
2022-10-05T21:53:03.322Z,64.62
2022-10-05T21:55:38.736Z,64.62
2022-10-05T21:58:09.361Z,64.64
2022-10-05T22:00:41.343Z,64.43
2022-10-05T22:03:11.964Z,64.79
2022-10-05T22:05:42.490Z,64.68
2022-10-05T22:08:22.889Z,64.86
2022-10-05T22:10:56.280Z,64.85
2022-10-05T22:13:27.988Z,65.17
2022-10-05T22:15:59.630Z,65.21
2022-10-05T22:18:30.443Z,65.30
2022-10-05T22:21:01.221Z,65.38
2022-10-05T22:23:32.151Z,64.95
2022-10-05T22:26:06.056Z,65.14
2022-10-05T22:28:37.055Z,65.40
2022-10-05T22:31:09.901Z,65.42
2022-10-05T22:33:41.076Z,65.69
2022-10-05T22:36:12.582Z,65.61
2022-10-05T22:38:43.100Z,65.86
2022-10-05T22:41:18.570Z,65.69
2022-10-05T22:43:51.029Z,66.46
2022-10-05T22:46:21.860Z,65.88
2022-10-05T22:48:52.326Z,66.05
2022-10-05T22:51:22.776Z,66.08
2022-10-05T22:53:53.172Z,65.89
2022-10-05T22:56:26.545Z,66.22
2022-10-05T22:58:57.038Z,66.15
2022-10-05T23:01:27.660Z,65.90
2022-10-05T23:03:58.346Z,65.90
2022-10-05T23:06:29.597Z,65.87
2022-10-05T23:09:00.340Z,65.98
2022-10-05T23:11:33.488Z,66.00
2022-10-05T23:14:03.877Z,66.53
2022-10-05T23:16:34.465Z,66.12
2022-10-05T23:19:04.987Z,66.65
2022-10-05T23:21:35.467Z,66.62
2022-10-05T23:24:05.849Z,66.33
2022-10-05T23:26:38.917Z,66.58
2022-10-05T23:29:10.185Z,66.61
2022-10-05T23:31:40.575Z,66.66
2022-10-05T23:34:10.997Z,66.93
2022-10-05T23:36:41.431Z,66.94
2022-10-05T23:39:13.837Z,67.00
2022-10-05T23:41:46.840Z,66.79
2022-10-05T23:44:17.232Z,66.80
2022-10-05T23:46:47.637Z,67.06
2022-10-05T23:49:18.432Z,67.23
2022-10-05T23:51:48.858Z,67.19
2022-10-05T23:54:19.330Z,67.13
2022-10-05T23:56:52.388Z,67.43
2022-10-05T23:59:22.795Z,67.57
